Terminal Aerodrome Forecast
Issued by NWS

Home | Current Version | Previous Version | Text Only | Print | Product List | Glossary On
Versions: 1 2 3 4 5 6 7 8 9 10 11 12 13 14 15 16 17 18 19 20
000
FTUS43 KJKL 271400 AAA
TAFSME
TAF AMD
KSME 271458Z 2715/2812 01009KT P6SM OVC011
     FM271800 35004KT P6SM BKN025
     FM272000 33005KT P6SM BKN035
     FM272200 35005KT P6SM SCT040
     FM280400 36005KT P6SM SCT015=

USA.gov is the U.S. government's official web portal to all federal, state and local government web resources and services.